Terminal Aerodrome Forecast
Issued by NWS Wilmington, OH

Current Version | Previous Version | Text Only | Print | Product List | Glossary Off
Versions: 1 2 3 4 5 6 7 8 9 10 11 12 13 14 15 16 17 18 19 20 21 22 23 24

000
FTUS41 KILN 012000 AAA
TAFILN
TAF AMD
KILN 012049Z 0121/0218 22012G20KT P6SM SCT045 BKN250
      TEMPO 0121/0123 3SM -TSRA BKN040CB
     FM020200 21007KT P6SM FEW040 BKN080
     FM020600 21007KT P6SM VCSH BKN035
     FM020900 21007KT P6SM -SHRA BKN035
     FM021200 22010KT P6SM -SHRA VCTS BKN040CB OVC150
     FM021500 22012G22KT 4SM -SHRA VCTS BKN035CB OVC150
      TEMPO 0215/0218 2SM -TSRA=

USA.gov is the U.S. government's official web portal to all federal, state and local government web resources and services.